Time;durP1;ratioP1;P1;durP2;ratioP2;P2;SDS_P1;SDS_P2;PMS_P1;PMS_P2;Temp;Humidity;BMP_temperature;BMP_pressure;BME280_temperature;BME280_humidity;BME280_pressure;Samples;Min_cycle;Max_cycle;Signal;HPM_P1;HPM_P2
2023/12/09 00:02:19;;;;;;;35.00;16.83;;;;;;;;;;5079380;28;20503;-75
2023/12/09 00:04:46;;;;;;;33.63;16.23;;;;;;;;;;5078191;28;20483;-77
2023/12/09 00:07:13;;;;;;;24.93;15.37;;;;;;;;;;5077606;28;20535;-75
2023/12/09 00:09:39;;;;;;;28.97;15.50;;;;;;;;;;5067441;28;20551;-76
2023/12/09 00:12:06;;;;;;;22.20;13.90;;;;;;;;;;5079672;28;20520;-76
2023/12/09 00:14:32;;;;;;;27.70;15.53;;;;;;;;;;5071584;28;20484;-74
2023/12/09 00:16:59;;;;;;;24.23;15.70;;;;;;;;;;5070653;28;20511;-77
2023/12/09 00:19:25;;;;;;;26.43;15.57;;;;;;;;;;5079812;28;20448;-77
2023/12/09 00:21:53;;;;;;;24.30;14.43;;;;;;;;;;5079401;28;20527;-73
2023/12/09 00:24:19;;;;;;;20.80;13.73;;;;;;;;;;5075522;28;20528;-70
2023/12/09 00:26:46;;;;;;;22.47;13.50;;;;;;;;;;5076496;28;20468;-78
2023/12/09 00:29:12;;;;;;;27.33;15.00;;;;;;;;;;5078251;28;20915;-77
2023/12/09 00:31:38;;;;;;;23.23;14.10;;;;;;;;;;5072393;28;20955;-75
2023/12/09 00:34:06;;;;;;;20.90;13.60;;;;;;;;;;5075923;28;20492;-75
2023/12/09 00:36:32;;;;;;;21.83;13.20;;;;;;;;;;5076311;28;20518;-73
2023/12/09 00:39:00;;;;;;;20.37;13.40;;;;;;;;;;5072665;28;20516;-73
2023/12/09 00:41:26;;;;;;;21.87;11.57;;;;;;;;;;5076993;28;20590;-74
2023/12/09 00:43:53;;;;;;;17.90;12.90;;;;;;;;;;5079142;28;21063;-75
2023/12/09 00:46:20;;;;;;;18.53;12.20;;;;;;;;;;5076370;28;20516;-76
2023/12/09 00:48:47;;;;;;;18.40;12.37;;;;;;;;;;5079374;28;20518;-71
2023/12/09 00:51:14;;;;;;;20.93;13.30;;;;;;;;;;5066643;28;20519;-72
2023/12/09 00:53:40;;;;;;;25.30;13.17;;;;;;;;;;5075368;28;20441;-77
2023/12/09 00:56:09;;;;;;;17.30;10.50;;;;;;;;;;5071584;28;20524;-76
2023/12/09 00:58:35;;;;;;;24.73;12.27;;;;;;;;;;5079222;28;20483;-76
2023/12/09 01:01:01;;;;;;;17.30;12.50;;;;;;;;;;5076564;28;20486;-76
2023/12/09 01:03:28;;;;;;;20.80;11.30;;;;;;;;;;5079171;28;20475;-76
2023/12/09 01:05:53;;;;;;;19.17;11.40;;;;;;;;;;5074103;28;20543;-76
2023/12/09 01:08:20;;;;;;;17.13;10.97;;;;;;;;;;5072955;28;20476;-76
2023/12/09 01:10:46;;;;;;;18.50;11.17;;;;;;;;;;5073548;28;20245;-72
2023/12/09 01:13:14;;;;;;;19.47;11.57;;;;;;;;;;5076618;28;20454;-76
2023/12/09 01:15:40;;;;;;;19.47;10.90;;;;;;;;;;5070792;28;21050;-74
2023/12/09 01:18:07;;;;;;;20.27;12.63;;;;;;;;;;5075836;28;20479;-74
2023/12/09 01:20:33;;;;;;;16.50;10.07;;;;;;;;;;5078192;28;20451;-76
2023/12/09 01:22:59;;;;;;;18.70;11.10;;;;;;;;;;5076315;28;20485;-76
2023/12/09 01:25:26;;;;;;;13.37;10.10;;;;;;;;;;5074556;28;20532;-76
2023/12/09 01:27:53;;;;;;;17.00;10.80;;;;;;;;;;5075566;28;20499;-74
2023/12/09 01:30:20;;;;;;;16.60;9.73;;;;;;;;;;5077478;28;20495;-75
2023/12/09 01:32:46;;;;;;;15.50;9.17;;;;;;;;;;5076605;28;20475;-77
2023/12/09 01:35:12;;;;;;;16.83;8.97;;;;;;;;;;5073928;28;20454;-74
2023/12/09 01:37:39;;;;;;;17.17;9.40;;;;;;;;;;5077325;28;20214;-76
2023/12/09 01:40:07;;;;;;;19.60;10.00;;;;;;;;;;5077901;28;20491;-76
2023/12/09 01:42:33;;;;;;;15.93;10.10;;;;;;;;;;5077316;28;20460;-76
2023/12/09 01:45:00;;;;;;;15.80;9.27;;;;;;;;;;5077621;28;20498;-75
2023/12/09 01:47:28;;;;;;;15.90;9.60;;;;;;;;;;5075027;28;20432;-75
2023/12/09 01:49:54;;;;;;;13.33;8.63;;;;;;;;;;5075864;28;20579;-73
2023/12/09 01:52:21;;;;;;;18.53;10.87;;;;;;;;;;5073260;28;20893;-74
2023/12/09 01:54:47;;;;;;;15.50;8.37;;;;;;;;;;5076414;28;21119;-73
2023/12/09 01:57:14;;;;;;;18.87;9.97;;;;;;;;;;5074202;28;20479;-76
2023/12/09 01:59:40;;;;;;;19.73;9.27;;;;;;;;;;5078079;28;20563;-74
2023/12/09 02:02:08;;;;;;;17.23;9.10;;;;;;;;;;5076852;28;20539;-73
2023/12/09 02:04:35;;;;;;;12.90;8.33;;;;;;;;;;5076644;28;20543;-75
2023/12/09 02:07:02;;;;;;;13.93;7.90;;;;;;;;;;5073750;28;20543;-74
2023/12/09 02:09:29;;;;;;;11.60;8.20;;;;;;;;;;5075633;28;20486;-76
2023/12/09 02:11:59;;;;;;;14.97;8.60;;;;;;;;;;5075293;28;20484;-73
2023/12/09 02:14:30;;;;;;;11.57;8.47;;;;;;;;;;5070824;28;20471;-74
2023/12/09 02:17:00;;;;;;;12.33;8.23;;;;;;;;;;5074252;28;20858;-71
2023/12/09 02:19:27;;;;;;;16.00;8.57;;;;;;;;;;5070820;28;20444;-75
2023/12/09 02:21:58;;;;;;;13.77;8.83;;;;;;;;;;5077507;28;20487;-72
2023/12/09 02:24:26;;;;;;;14.27;9.07;;;;;;;;;;5073568;28;20467;-73
2023/12/09 02:26:53;;;;;;;11.27;7.77;;;;;;;;;;5075272;28;20472;-72
2023/12/09 02:29:20;;;;;;;13.90;8.10;;;;;;;;;;5073254;28;20566;-76
2023/12/09 02:31:48;;;;;;;12.50;8.10;;;;;;;;;;5071228;28;21083;-77
2023/12/09 02:34:15;;;;;;;12.87;8.27;;;;;;;;;;5076076;28;20497;-74
2023/12/09 02:36:43;;;;;;;11.90;7.60;;;;;;;;;;5075487;28;20492;-75
2023/12/09 02:39:11;;;;;;;14.17;7.70;;;;;;;;;;5073178;28;20488;-76
2023/12/09 02:41:39;;;;;;;14.53;6.50;;;;;;;;;;5075975;28;20543;-78
2023/12/09 02:44:06;;;;;;;14.20;6.87;;;;;;;;;;5076800;28;20498;-77
2023/12/09 02:46:32;;;;;;;17.00;7.40;;;;;;;;;;5075293;28;20486;-73
2023/12/09 02:48:59;;;;;;;14.20;7.80;;;;;;;;;;5073747;28;21068;-73
2023/12/09 02:51:26;;;;;;;10.70;6.80;;;;;;;;;;5069839;28;20523;-72
2023/12/09 02:53:54;;;;;;;12.83;7.00;;;;;;;;;;5077035;28;20531;-76
2023/12/09 02:56:20;;;;;;;15.80;7.97;;;;;;;;;;5067124;28;21152;-76
2023/12/09 02:58:48;;;;;;;13.60;6.70;;;;;;;;;;5068986;28;20555;-73
2023/12/09 03:01:14;;;;;;;11.03;6.70;;;;;;;;;;5077319;28;20447;-76
2023/12/09 03:03:41;;;;;;;10.03;6.47;;;;;;;;;;5076391;28;20547;-74
2023/12/09 03:06:07;;;;;;;14.50;7.60;;;;;;;;;;5077465;28;20454;-76
2023/12/09 03:08:34;;;;;;;19.87;7.30;;;;;;;;;;5070883;28;20455;-74
2023/12/09 03:11:01;;;;;;;14.57;7.27;;;;;;;;;;5076636;28;20479;-72
2023/12/09 03:13:27;;;;;;;13.50;6.70;;;;;;;;;;5076355;28;20448;-72
2023/12/09 03:15:55;;;;;;;9.43;6.20;;;;;;;;;;5081202;28;20460;-74
2023/12/09 03:18:21;;;;;;;12.73;6.13;;;;;;;;;;5074492;28;20559;-70
2023/12/09 03:20:48;;;;;;;12.33;6.17;;;;;;;;;;5075694;28;20555;-72
2023/12/09 03:23:14;;;;;;;12.83;6.80;;;;;;;;;;5080780;28;20511;-70
2023/12/09 03:25:40;;;;;;;18.03;6.77;;;;;;;;;;5079456;28;20539;-72
2023/12/09 03:28:07;;;;;;;9.27;5.90;;;;;;;;;;5079573;28;20563;-73
2023/12/09 03:30:33;;;;;;;9.93;5.60;;;;;;;;;;5077579;28;20625;-74
2023/12/09 03:33:01;;;;;;;17.80;6.70;;;;;;;;;;5073612;28;20467;-73
2023/12/09 03:35:28;;;;;;;12.27;6.10;;;;;;;;;;5079914;28;20515;-72
2023/12/09 03:37:54;;;;;;;12.47;5.80;;;;;;;;;;5075245;28;20502;-71
2023/12/09 03:40:20;;;;;;;17.57;5.93;;;;;;;;;;5077680;28;20539;-76
2023/12/09 03:42:47;;;;;;;9.57;5.60;;;;;;;;;;5079349;28;20456;-73
2023/12/09 03:45:13;;;;;;;11.33;6.03;;;;;;;;;;5078733;28;20516;-76
2023/12/09 03:47:40;;;;;;;9.87;5.90;;;;;;;;;;5079254;28;20440;-75
2023/12/09 03:50:08;;;;;;;12.53;7.30;;;;;;;;;;5077028;28;20574;-76
2023/12/09 03:52:34;;;;;;;11.90;6.40;;;;;;;;;;5079864;28;20511;-74
2023/12/09 03:55:01;;;;;;;9.97;5.83;;;;;;;;;;5076465;28;20479;-74
2023/12/09 03:57:27;;;;;;;14.50;6.20;;;;;;;;;;5078153;28;20514;-76
2023/12/09 03:59:54;;;;;;;9.77;5.93;;;;;;;;;;5078252;28;20479;-75
2023/12/09 04:02:20;;;;;;;11.83;5.60;;;;;;;;;;5078782;28;20523;-76
2023/12/09 04:04:46;;;;;;;17.33;5.93;;;;;;;;;;5080635;28;20570;-73
2023/12/09 04:07:14;;;;;;;11.73;5.53;;;;;;;;;;5079040;28;20495;-73
2023/12/09 04:09:41;;;;;;;11.53;5.50;;;;;;;;;;5075968;28;20558;-75
2023/12/09 04:12:07;;;;;;;15.03;5.97;;;;;;;;;;5080172;28;20979;-73
2023/12/09 04:14:34;;;;;;;16.40;6.10;;;;;;;;;;5079520;28;20495;-72
2023/12/09 04:17:00;;;;;;;13.30;4.97;;;;;;;;;;5080691;28;20486;-73
2023/12/09 04:19:28;;;;;;;9.30;5.23;;;;;;;;;;5077182;28;20512;-72
2023/12/09 04:21:55;;;;;;;11.83;5.50;;;;;;;;;;5079737;28;20487;-73
2023/12/09 04:24:23;;;;;;;9.73;4.93;;;;;;;;;;5078283;28;20503;-73
2023/12/09 04:26:49;;;;;;;10.27;5.37;;;;;;;;;;5078508;28;20526;-72
2023/12/09 04:29:15;;;;;;;7.80;3.93;;;;;;;;;;5070546;28;21038;-71
2023/12/09 04:31:42;;;;;;;10.90;4.97;;;;;;;;;;5078906;28;20525;-71
2023/12/09 04:34:09;;;;;;;16.57;4.97;;;;;;;;;;5072791;28;20453;-73
2023/12/09 04:36:35;;;;;;;9.10;4.30;;;;;;;;;;5073738;28;20484;-72
2023/12/09 04:39:02;;;;;;;7.20;4.83;;;;;;;;;;5072289;28;20510;-74
2023/12/09 04:41:30;;;;;;;10.93;4.30;;;;;;;;;;5078713;28;20531;-72
2023/12/09 04:43:57;;;;;;;8.50;4.50;;;;;;;;;;5072338;28;20563;-72
2023/12/09 04:46:23;;;;;;;10.57;4.87;;;;;;;;;;5079484;28;20511;-75
2023/12/09 04:48:49;;;;;;;13.67;4.20;;;;;;;;;;5074504;28;21093;-75
2023/12/09 04:51:16;;;;;;;10.27;4.10;;;;;;;;;;5074646;28;20555;-72
2023/12/09 04:53:43;;;;;;;11.60;4.23;;;;;;;;;;5074199;28;20536;-74
2023/12/09 04:56:09;;;;;;;8.83;3.67;;;;;;;;;;5077892;28;20524;-74
2023/12/09 04:58:37;;;;;;;10.50;4.70;;;;;;;;;;5076655;28;20469;-75
2023/12/09 05:01:04;;;;;;;11.17;4.83;;;;;;;;;;5076672;28;20484;-74
2023/12/09 05:03:30;;;;;;;9.33;4.07;;;;;;;;;;5076591;28;20463;-76
2023/12/09 05:05:57;;;;;;;12.13;5.50;;;;;;;;;;5076348;28;20535;-75
2023/12/09 05:08:23;;;;;;;11.10;4.33;;;;;;;;;;5077636;28;20483;-76
2023/12/09 05:10:49;;;;;;;12.70;4.70;;;;;;;;;;5078519;28;20579;-75
2023/12/09 05:13:16;;;;;;;17.27;5.30;;;;;;;;;;5075821;28;20586;-72
2023/12/09 05:15:44;;;;;;;5.43;3.67;;;;;;;;;;5073510;28;20516;-74
2023/12/09 05:18:10;;;;;;;19.73;5.07;;;;;;;;;;5072906;28;20436;-76
2023/12/09 05:20:37;;;;;;;8.50;4.23;;;;;;;;;;5071390;28;20456;-71
2023/12/09 05:23:03;;;;;;;9.17;3.80;;;;;;;;;;5075345;28;21157;-72
2023/12/09 05:25:30;;;;;;;12.27;4.70;;;;;;;;;;5072641;28;20546;-72
2023/12/09 05:27:56;;;;;;;10.73;4.77;;;;;;;;;;5076250;28;20886;-73
2023/12/09 05:30:23;;;;;;;14.77;5.00;;;;;;;;;;5076566;28;20560;-76
2023/12/09 05:32:51;;;;;;;12.57;3.90;;;;;;;;;;5073199;28;20836;-76
2023/12/09 05:35:17;;;;;;;13.37;4.53;;;;;;;;;;5073979;28;20463;-74
2023/12/09 05:37:44;;;;;;;9.27;4.00;;;;;;;;;;5074324;28;20483;-76
2023/12/09 05:40:11;;;;;;;9.43;4.30;;;;;;;;;;5071193;28;20512;-72
2023/12/09 05:42:37;;;;;;;8.67;4.70;;;;;;;;;;5073166;28;20432;-72
2023/12/09 05:45:04;;;;;;;9.13;4.30;;;;;;;;;;5077286;28;20501;-72
2023/12/09 05:47:31;;;;;;;9.33;4.00;;;;;;;;;;5076899;28;20539;-74
2023/12/09 05:49:58;;;;;;;9.53;3.90;;;;;;;;;;5075711;28;20567;-72
2023/12/09 05:52:25;;;;;;;7.93;4.63;;;;;;;;;;5072157;28;20540;-72
2023/12/09 05:54:51;;;;;;;13.27;4.20;;;;;;;;;;5076951;28;20592;-75
2023/12/09 05:57:18;;;;;;;10.63;4.00;;;;;;;;;;5071221;28;20452;-73
2023/12/09 05:59:44;;;;;;;10.33;3.70;;;;;;;;;;5069299;28;20535;-75
2023/12/09 06:02:10;;;;;;;10.30;4.70;;;;;;;;;;5076173;28;20488;-77
2023/12/09 06:04:37;;;;;;;18.33;4.20;;;;;;;;;;5076984;28;20483;-77
2023/12/09 06:07:05;;;;;;;8.27;4.07;;;;;;;;;;5078165;28;20441;-76
2023/12/09 06:09:31;;;;;;;5.60;3.50;;;;;;;;;;5077187;28;20480;-76
2023/12/09 06:11:58;;;;;;;9.63;4.80;;;;;;;;;;5077017;28;20514;-76
2023/12/09 06:14:24;;;;;;;9.67;4.13;;;;;;;;;;5072125;28;20463;-75
2023/12/09 06:16:50;;;;;;;7.23;4.20;;;;;;;;;;5072002;28;20519;-73
2023/12/09 06:19:17;;;;;;;7.10;4.27;;;;;;;;;;5069850;28;20468;-76
2023/12/09 06:21:43;;;;;;;7.30;3.83;;;;;;;;;;5073874;28;20456;-74
2023/12/09 06:24:13;;;;;;;10.20;4.67;;;;;;;;;;5074451;28;20948;-70
2023/12/09 06:26:42;;;;;;;7.50;4.03;;;;;;;;;;5067192;28;20456;-73
2023/12/09 06:29:08;;;;;;;6.73;3.90;;;;;;;;;;5068492;28;20508;-71
2023/12/09 06:31:35;;;;;;;9.70;5.20;;;;;;;;;;5074234;28;20494;-76
2023/12/09 06:34:01;;;;;;;8.23;3.70;;;;;;;;;;5072265;28;20541;-76
2023/12/09 06:36:27;;;;;;;4.70;3.37;;;;;;;;;;5070731;28;20495;-73
2023/12/09 06:38:54;;;;;;;5.23;3.70;;;;;;;;;;5071553;28;20491;-72
2023/12/09 06:41:22;;;;;;;6.33;4.40;;;;;;;;;;5068047;28;20488;-74
2023/12/09 06:43:48;;;;;;;13.50;4.30;;;;;;;;;;5068144;28;20564;-77
2023/12/09 06:46:14;;;;;;;8.93;3.70;;;;;;;;;;5072773;28;20543;-74
2023/12/09 06:48:41;;;;;;;7.30;4.63;;;;;;;;;;5072195;28;20895;-74
2023/12/09 06:51:14;;;;;;;11.57;4.57;;;;;;;;;;5077270;28;20549;-73
2023/12/09 06:53:40;;;;;;;11.43;3.80;;;;;;;;;;5073486;28;20512;-72
2023/12/09 06:56:08;;;;;;;13.37;5.13;;;;;;;;;;5076680;28;20786;-74
2023/12/09 06:58:36;;;;;;;11.33;5.43;;;;;;;;;;5075010;28;20509;-73
2023/12/09 07:01:02;;;;;;;5.97;3.90;;;;;;;;;;5075591;28;20456;-73
2023/12/09 07:03:29;;;;;;;14.83;5.13;;;;;;;;;;5079184;28;20515;-72
2023/12/09 07:05:55;;;;;;;11.27;5.13;;;;;;;;;;5074829;28;20455;-74
2023/12/09 07:08:22;;;;;;;9.03;5.10;;;;;;;;;;5075110;28;20464;-72
2023/12/09 07:10:48;;;;;;;8.37;4.87;;;;;;;;;;5072537;28;20491;-72
2023/12/09 07:13:14;;;;;;;18.63;5.70;;;;;;;;;;5077875;28;20482;-74
2023/12/09 07:15:42;;;;;;;15.87;5.50;;;;;;;;;;5072715;28;20487;-75
2023/12/09 07:18:09;;;;;;;10.10;5.30;;;;;;;;;;5078662;28;20497;-74
2023/12/09 07:20:35;;;;;;;11.90;5.00;;;;;;;;;;5072227;28;20472;-73
2023/12/09 07:23:01;;;;;;;24.20;5.17;;;;;;;;;;5073137;28;20443;-74
2023/12/09 07:25:28;;;;;;;12.43;4.57;;;;;;;;;;5077894;28;20482;-72
2023/12/09 07:27:54;;;;;;;9.00;5.57;;;;;;;;;;5075490;28;20468;-74
2023/12/09 07:30:21;;;;;;;14.37;5.50;;;;;;;;;;5071839;28;20489;-72
2023/12/09 07:32:49;;;;;;;11.50;5.40;;;;;;;;;;5069739;28;20456;-76
2023/12/09 07:35:16;;;;;;;8.40;5.30;;;;;;;;;;5074305;28;20452;-74
2023/12/09 07:37:43;;;;;;;11.90;4.30;;;;;;;;;;5069507;28;20487;-70
2023/12/09 07:40:11;;;;;;;9.13;4.70;;;;;;;;;;5073462;28;20479;-75
2023/12/09 07:42:38;;;;;;;11.93;5.10;;;;;;;;;;5074185;28;20922;-75
2023/12/09 07:45:04;;;;;;;14.93;5.40;;;;;;;;;;5077672;28;21028;-73
2023/12/09 07:47:31;;;;;;;16.13;5.10;;;;;;;;;;5076951;28;20453;-74
2023/12/09 07:49:59;;;;;;;10.87;4.73;;;;;;;;;;5073775;28;20459;-73
2023/12/09 07:52:25;;;;;;;9.13;4.63;;;;;;;;;;5074397;28;20833;-58
2023/12/09 07:54:51;;;;;;;15.20;7.40;;;;;;;;;;5073336;28;20472;-58
2023/12/09 07:57:18;;;;;;;17.33;5.10;;;;;;;;;;5071536;28;20494;-57
2023/12/09 07:59:44;;;;;;;17.50;5.90;;;;;;;;;;5072693;28;20531;-58
2023/12/09 08:02:10;;;;;;;15.87;5.07;;;;;;;;;;5069371;28;20547;-58
2023/12/09 08:04:38;;;;;;;8.73;4.17;;;;;;;;;;5075873;28;20520;-58
2023/12/09 08:07:06;;;;;;;17.37;5.43;;;;;;;;;;5078413;28;20440;-58
2023/12/09 08:09:32;;;;;;;8.17;4.57;;;;;;;;;;5077932;28;20519;-58
2023/12/09 08:11:59;;;;;;;9.37;4.90;;;;;;;;;;5075068;28;20594;-58
2023/12/09 08:14:25;;;;;;;9.83;4.70;;;;;;;;;;5075919;28;20467;-58
2023/12/09 08:16:52;;;;;;;9.70;4.10;;;;;;;;;;5072156;28;20956;-59
2023/12/09 08:19:18;;;;;;;10.10;4.87;;;;;;;;;;5074138;28;20440;-58
2023/12/09 08:21:45;;;;;;;9.50;4.47;;;;;;;;;;5078924;28;20451;-58
2023/12/09 08:24:12;;;;;;;8.10;4.50;;;;;;;;;;5075978;28;20523;-58
2023/12/09 08:26:39;;;;;;;5.03;4.20;;;;;;;;;;5073831;28;20479;-58
2023/12/09 08:29:05;;;;;;;13.63;4.27;;;;;;;;;;5074476;28;20499;-58
2023/12/09 08:31:32;;;;;;;7.57;5.50;;;;;;;;;;5074368;28;20517;-58
2023/12/09 08:33:58;;;;;;;9.17;5.00;;;;;;;;;;5073482;28;20540;-58
2023/12/09 08:36:25;;;;;;;6.37;5.17;;;;;;;;;;5075998;28;20479;-58
2023/12/09 08:38:51;;;;;;;12.07;4.17;;;;;;;;;;5075328;28;20555;-58
2023/12/09 08:41:19;;;;;;;7.60;4.17;;;;;;;;;;5073117;28;20452;-58
2023/12/09 08:43:45;;;;;;;9.00;4.90;;;;;;;;;;5073790;28;20479;-58
2023/12/09 08:46:12;;;;;;;11.10;5.73;;;;;;;;;;5068691;28;20739;-58
2023/12/09 08:48:38;;;;;;;12.77;5.00;;;;;;;;;;5074671;28;20487;-58
2023/12/09 08:51:05;;;;;;;8.03;4.87;;;;;;;;;;5078811;28;20587;-59
2023/12/09 08:53:31;;;;;;;4.93;4.43;;;;;;;;;;5075770;28;20499;-58
2023/12/09 08:55:58;;;;;;;6.83;4.70;;;;;;;;;;5076858;28;21139;-58
2023/12/09 08:58:26;;;;;;;12.80;5.50;;;;;;;;;;5073138;28;20520;-58
2023/12/09 09:00:52;;;;;;;9.50;4.87;;;;;;;;;;5071738;28;20487;-58
2023/12/09 09:03:18;;;;;;;8.70;5.10;;;;;;;;;;5066463;28;20476;-58
2023/12/09 09:05:45;;;;;;;10.57;4.97;;;;;;;;;;5073512;28;20498;-58
2023/12/09 09:08:11;;;;;;;7.17;5.40;;;;;;;;;;5074689;28;20522;-58
2023/12/09 09:10:38;;;;;;;5.93;4.67;;;;;;;;;;5072768;28;21303;-58
2023/12/09 09:13:04;;;;;;;10.87;4.57;;;;;;;;;;5075506;28;20693;-58
2023/12/09 09:15:33;;;;;;;7.53;4.40;;;;;;;;;;5076027;28;20540;-58
2023/12/09 09:17:59;;;;;;;8.20;4.27;;;;;;;;;;5071074;28;20457;-58
2023/12/09 09:20:25;;;;;;;6.40;3.83;;;;;;;;;;5070088;28;20463;-57
2023/12/09 09:22:52;;;;;;;11.13;5.40;;;;;;;;;;5074922;28;20433;-57
2023/12/09 09:25:18;;;;;;;11.10;5.50;;;;;;;;;;5074250;28;20448;-58
2023/12/09 09:27:45;;;;;;;7.77;3.80;;;;;;;;;;5074151;28;20474;-58
2023/12/09 09:30:13;;;;;;;10.10;4.50;;;;;;;;;;5070531;28;20499;-58
2023/12/09 09:32:41;;;;;;;6.67;4.43;;;;;;;;;;5074435;28;20698;-58
2023/12/09 09:35:08;;;;;;;8.00;4.40;;;;;;;;;;5073227;28;20462;-58
2023/12/09 09:37:34;;;;;;;6.30;4.43;;;;;;;;;;5075101;28;20983;-58
2023/12/09 09:40:04;;;;;;;9.40;4.47;;;;;;;;;;5076487;28;20495;-58
2023/12/09 09:42:31;;;;;;;6.70;4.43;;;;;;;;;;5075238;28;20475;-67
2023/12/09 09:45:05;;;;;;;5.93;4.50;;;;;;;;;;5073031;28;20536;-58
2023/12/09 09:47:32;;;;;;;7.90;4.50;;;;;;;;;;5074064;28;20451;-58
2023/12/09 09:50:01;;;;;;;4.67;4.17;;;;;;;;;;5076629;28;20463;-58
2023/12/09 09:52:28;;;;;;;6.90;4.87;;;;;;;;;;5074480;28;20515;-59
2023/12/09 09:54:55;;;;;;;5.27;4.77;;;;;;;;;;5076479;28;20476;-59
2023/12/09 09:57:23;;;;;;;9.93;5.10;;;;;;;;;;5074903;28;20484;-58
2023/12/09 09:59:50;;;;;;;6.70;5.43;;;;;;;;;;5076093;28;20453;-58
2023/12/09 10:02:19;;;;;;;6.50;6.10;;;;;;;;;;5076747;28;20491;-58
2023/12/09 10:04:46;;;;;;;9.87;5.33;;;;;;;;;;5080265;28;20484;-58
2023/12/09 10:07:14;;;;;;;6.30;5.70;;;;;;;;;;5079142;28;20478;-58
2023/12/09 10:09:41;;;;;;;7.03;6.00;;;;;;;;;;5076462;28;20476;-58
2023/12/09 10:12:07;;;;;;;6.63;5.13;;;;;;;;;;5072611;28;20516;-57
2023/12/09 10:14:34;;;;;;;7.03;6.43;;;;;;;;;;5074244;28;20508;-57
2023/12/09 10:17:01;;;;;;;5.43;4.93;;;;;;;;;;5077430;28;20494;-58
2023/12/09 10:19:27;;;;;;;6.13;5.63;;;;;;;;;;5076152;28;20516;-58
2023/12/09 10:21:53;;;;;;;6.20;5.57;;;;;;;;;;5076006;28;20483;-58
2023/12/09 10:24:21;;;;;;;7.10;6.40;;;;;;;;;;5063302;28;20461;-59
2023/12/09 10:26:47;;;;;;;8.33;5.70;;;;;;;;;;5071286;28;20527;-58
2023/12/09 10:29:14;;;;;;;9.00;6.67;;;;;;;;;;5067935;28;20526;-58
2023/12/09 10:31:41;;;;;;;6.47;5.60;;;;;;;;;;5076579;28;20487;-58
2023/12/09 10:34:11;;;;;;;6.73;5.57;;;;;;;;;;5076683;28;20562;-57
2023/12/09 10:36:37;;;;;;;5.70;5.20;;;;;;;;;;5074450;28;20502;-58
2023/12/09 10:39:05;;;;;;;6.27;5.67;;;;;;;;;;5068905;28;20515;-58
2023/12/09 10:41:33;;;;;;;6.70;6.10;;;;;;;;;;5069426;28;20459;-58
2023/12/09 10:44:02;;;;;;;8.50;4.97;;;;;;;;;;5075919;28;20472;-57
2023/12/09 10:46:28;;;;;;;5.30;4.90;;;;;;;;;;5073214;28;20479;-57
2023/12/09 10:48:55;;;;;;;6.30;4.43;;;;;;;;;;5065832;28;20595;-58
2023/12/09 10:51:23;;;;;;;5.17;4.67;;;;;;;;;;5072566;28;20530;-57
2023/12/09 10:53:49;;;;;;;7.83;4.60;;;;;;;;;;5073745;28;20889;-58
2023/12/09 10:56:15;;;;;;;4.53;4.23;;;;;;;;;;5076714;28;20491;-58
2023/12/09 10:58:45;;;;;;;5.03;4.53;;;;;;;;;;5068297;28;20513;-57
2023/12/09 11:01:12;;;;;;;5.47;5.07;;;;;;;;;;5072028;28;20456;-58
2023/12/09 11:03:39;;;;;;;5.40;4.60;;;;;;;;;;5074543;28;20532;-57
2023/12/09 11:06:07;;;;;;;5.70;5.20;;;;;;;;;;5073262;28;20475;-59
2023/12/09 11:08:34;;;;;;;6.40;5.80;;;;;;;;;;5072954;28;20546;-58
2023/12/09 11:11:05;;;;;;;6.07;5.47;;;;;;;;;;5071017;28;20512;-58
2023/12/09 11:13:33;;;;;;;6.33;4.50;;;;;;;;;;5074480;28;20471;-58
2023/12/09 11:16:10;;;;;;;8.30;4.90;;;;;;;;;;5070887;28;20495;-58
2023/12/09 11:18:46;;;;;;;5.53;5.03;;;;;;;;;;5076965;28;20894;-58
2023/12/09 11:21:14;;;;;;;5.90;5.20;;;;;;;;;;5076099;28;20483;-57
2023/12/09 11:23:43;;;;;;;5.40;5.00;;;;;;;;;;5065889;28;20428;-58
2023/12/09 11:26:13;;;;;;;5.73;4.80;;;;;;;;;;5076426;28;21012;-70
2023/12/09 11:28:40;;;;;;;7.33;5.03;;;;;;;;;;5066221;28;20513;-66
2023/12/09 11:31:06;;;;;;;5.67;5.17;;;;;;;;;;5078912;28;20479;-69
2023/12/09 11:33:34;;;;;;;6.17;4.63;;;;;;;;;;5072911;28;20513;-69
2023/12/09 11:36:01;;;;;;;5.60;5.03;;;;;;;;;;5075734;28;20479;-68
2023/12/09 11:38:28;;;;;;;5.50;4.50;;;;;;;;;;5074181;28;20511;-66
2023/12/09 11:40:54;;;;;;;5.77;5.20;;;;;;;;;;5071613;28;20456;-65
2023/12/09 11:43:21;;;;;;;5.13;4.63;;;;;;;;;;5075442;28;20552;-67
2023/12/09 11:45:47;;;;;;;4.67;4.27;;;;;;;;;;5080660;28;20462;-67
2023/12/09 11:48:14;;;;;;;4.87;3.70;;;;;;;;;;5073719;28;20508;-68
2023/12/09 11:50:42;;;;;;;5.43;4.07;;;;;;;;;;5075860;28;20486;-66
2023/12/09 11:53:09;;;;;;;4.57;3.67;;;;;;;;;;5075657;28;20499;-67
2023/12/09 11:55:35;;;;;;;4.30;3.90;;;;;;;;;;5074393;28;20456;-67
2023/12/09 11:58:03;;;;;;;10.67;4.27;;;;;;;;;;5078183;28;20448;-65
2023/12/09 12:00:29;;;;;;;4.63;4.23;;;;;;;;;;5068940;28;20464;-69
2023/12/09 12:02:56;;;;;;;4.90;4.53;;;;;;;;;;5074815;28;20970;-66
2023/12/09 12:05:22;;;;;;;5.80;4.47;;;;;;;;;;5073799;28;20550;-68
2023/12/09 12:07:50;;;;;;;10.23;4.00;;;;;;;;;;5076233;28;20440;-67
2023/12/09 12:10:17;;;;;;;8.63;5.30;;;;;;;;;;5077124;28;20472;-68
2023/12/09 12:12:44;;;;;;;8.17;5.43;;;;;;;;;;5075937;28;20519;-68
2023/12/09 12:15:11;;;;;;;6.90;4.50;;;;;;;;;;5076608;28;21004;-68
2023/12/09 12:17:39;;;;;;;4.53;4.23;;;;;;;;;;5071528;28;20461;-67
2023/12/09 12:20:07;;;;;;;10.33;5.60;;;;;;;;;;5077431;28;20454;-69
2023/12/09 12:22:34;;;;;;;5.73;4.47;;;;;;;;;;5079217;28;20464;-67
2023/12/09 12:25:03;;;;;;;4.90;4.50;;;;;;;;;;5077274;28;20447;-67
2023/12/09 12:27:33;;;;;;;5.50;4.97;;;;;;;;;;5079130;28;21198;-68
2023/12/09 12:30:00;;;;;;;5.00;4.53;;;;;;;;;;5080095;28;20447;-69
2023/12/09 12:32:26;;;;;;;5.73;4.93;;;;;;;;;;5075257;28;20491;-66
2023/12/09 12:34:53;;;;;;;9.90;4.50;;;;;;;;;;5070446;28;20494;-67
2023/12/09 12:37:19;;;;;;;5.00;4.40;;;;;;;;;;5076324;28;20444;-69
2023/12/09 12:39:46;;;;;;;7.60;4.80;;;;;;;;;;5075802;28;20835;-69
2023/12/09 12:42:14;;;;;;;12.17;7.37;;;;;;;;;;5068524;28;20908;-69
2023/12/09 12:44:41;;;;;;;6.40;4.87;;;;;;;;;;5071059;28;21002;-65
2023/12/09 12:47:09;;;;;;;5.93;4.80;;;;;;;;;;5074299;28;20498;-68
2023/12/09 12:49:37;;;;;;;6.90;6.00;;;;;;;;;;5078873;28;21010;-69
2023/12/09 12:52:03;;;;;;;8.27;5.60;;;;;;;;;;5079378;28;20521;-67
2023/12/09 12:54:30;;;;;;;5.13;4.70;;;;;;;;;;5078787;28;20449;-66
2023/12/09 12:56:57;;;;;;;5.83;5.30;;;;;;;;;;5075696;28;20464;-66
2023/12/09 12:59:24;;;;;;;5.37;4.87;;;;;;;;;;5068340;28;20527;-68
2023/12/09 13:01:51;;;;;;;7.00;4.90;;;;;;;;;;5078076;28;20487;-67
2023/12/09 13:04:17;;;;;;;6.87;5.10;;;;;;;;;;5074956;28;20437;-69
2023/12/09 13:06:44;;;;;;;10.20;5.57;;;;;;;;;;5067178;28;20445;-69
2023/12/09 13:14:26;;;;;;;12.57;5.50;;;;;;;;;;3387503;22;20561;-80
2023/12/09 13:16:53;;;;;;;6.53;5.13;;;;;;;;;;5066706;28;20499;-80
2023/12/09 13:19:20;;;;;;;6.63;4.83;;;;;;;;;;5078847;28;21043;-80
2023/12/09 13:21:46;;;;;;;9.30;5.60;;;;;;;;;;5079369;28;20460;-80
2023/12/09 13:24:13;;;;;;;8.10;5.30;;;;;;;;;;5079954;28;20452;-80
2023/12/09 13:26:39;;;;;;;7.37;5.10;;;;;;;;;;5079168;28;20460;-80
2023/12/09 13:29:06;;;;;;;7.00;5.37;;;;;;;;;;5079334;28;20452;-80
2023/12/09 13:31:34;;;;;;;6.33;5.03;;;;;;;;;;5079176;28;20468;-81
2023/12/09 13:34:00;;;;;;;6.20;4.47;;;;;;;;;;5078205;28;21025;-83
2023/12/09 13:36:27;;;;;;;6.17;5.23;;;;;;;;;;5079311;28;20455;-80
2023/12/09 13:38:54;;;;;;;9.60;5.60;;;;;;;;;;5079623;28;20451;-81
2023/12/09 13:41:21;;;;;;;7.63;5.47;;;;;;;;;;5078801;28;20459;-81
2023/12/09 13:43:48;;;;;;;10.03;6.10;;;;;;;;;;5079239;28;20467;-80
2023/12/09 13:46:14;;;;;;;6.93;5.03;;;;;;;;;;5075782;28;20459;-81
2023/12/09 13:48:42;;;;;;;6.70;6.00;;;;;;;;;;5069252;28;20461;-80
2023/12/09 13:51:09;;;;;;;9.07;5.70;;;;;;;;;;5078653;28;20513;-81
2023/12/09 13:53:36;;;;;;;7.77;5.37;;;;;;;;;;5079058;28;20826;-80
2023/12/09 13:56:04;;;;;;;10.73;5.97;;;;;;;;;;5077901;28;20467;-80
2023/12/09 13:58:30;;;;;;;7.57;5.50;;;;;;;;;;5078768;28;20525;-81
2023/12/09 14:00:58;;;;;;;7.57;5.73;;;;;;;;;;5078557;28;21220;-81
2023/12/09 14:03:24;;;;;;;10.40;6.13;;;;;;;;;;5078366;28;20479;-80
2023/12/09 14:05:52;;;;;;;6.63;5.43;;;;;;;;;;5078622;28;20452;-81
2023/12/09 14:08:19;;;;;;;6.90;5.33;;;;;;;;;;5079074;28;20452;-80
2023/12/09 14:10:45;;;;;;;7.73;5.63;;;;;;;;;;5078104;28;21118;-81
2023/12/09 14:13:12;;;;;;;9.10;6.80;;;;;;;;;;5078889;28;20492;-81
2023/12/09 14:15:38;;;;;;;13.60;6.33;;;;;;;;;;5078515;28;20544;-81
2023/12/09 14:18:05;;;;;;;13.50;6.90;;;;;;;;;;5076375;28;20460;-80
2023/12/09 14:20:33;;;;;;;10.10;6.27;;;;;;;;;;5074370;28;20484;-84
2023/12/09 14:23:01;;;;;;;9.77;5.57;;;;;;;;;;5073618;28;20868;-81
2023/12/09 14:25:28;;;;;;;15.50;7.07;;;;;;;;;;5077779;28;20455;-81
2023/12/09 14:27:54;;;;;;;8.47;5.60;;;;;;;;;;5078535;28;21054;-81
2023/12/09 14:30:21;;;;;;;13.17;6.53;;;;;;;;;;5077999;28;20448;-81
2023/12/09 14:32:47;;;;;;;12.50;6.30;;;;;;;;;;5077828;28;20487;-80
2023/12/09 14:35:15;;;;;;;8.40;5.90;;;;;;;;;;5075086;28;21009;-81
2023/12/09 14:37:42;;;;;;;13.37;6.30;;;;;;;;;;5078191;28;20491;-81
2023/12/09 14:40:10;;;;;;;8.40;7.17;;;;;;;;;;5078239;28;20456;-81